createdAt,value
2022-08-17T08:27:49.752Z,60.38
2022-08-17T08:30:44.959Z,58.58
2022-08-17T08:34:09.234Z,57.07
2022-08-17T08:37:34.755Z,56.77
2022-08-17T08:40:40.734Z,53.28
2022-08-17T08:43:53.421Z,53.19
2022-08-17T08:47:10.023Z,52.73
2022-08-17T08:50:37.506Z,50.89
2022-08-17T08:53:51.908Z,55.44
2022-08-17T08:57:11.614Z,54.47
2022-08-17T08:59:57.966Z,52.00
2022-08-17T09:03:08.737Z,48.37
2022-08-17T09:06:32.283Z,50.88
2022-08-17T09:09:38.974Z,51.10
2022-08-17T09:12:53.097Z,51.85
2022-08-17T09:15:44.956Z,52.17
2022-08-17T09:19:00.582Z,51.01
2022-08-17T09:22:24.090Z,50.83
2022-08-17T09:25:17.303Z,50.83
2022-08-17T09:28:13.657Z,48.30
2022-08-17T09:31:04.161Z,47.30
2022-08-17T09:33:51.265Z,45.91
2022-08-17T09:36:56.295Z,47.08
2022-08-17T09:39:50.504Z,42.49
2022-08-17T09:42:55.969Z,40.67
2022-08-17T09:45:50.706Z,38.47
2022-08-17T09:48:41.644Z,39.72
2022-08-17T09:51:40.009Z,37.58
2022-08-17T09:54:39.822Z,40.29
2022-08-17T09:57:54.290Z,43.20
2022-08-17T10:00:50.661Z,42.24
2022-08-17T10:03:58.154Z,40.55
2022-08-17T10:06:58.602Z,41.36
2022-08-17T10:09:57.650Z,40.98
2022-08-17T10:13:03.982Z,40.73
2022-08-17T10:16:28.491Z,42.78
2022-08-17T10:19:39.080Z,42.37
2022-08-17T10:22:56.448Z,38.28
2022-08-17T10:26:07.223Z,39.37
2022-08-17T10:28:58.661Z,38.20
2022-08-17T10:31:51.467Z,37.60
2022-08-17T10:34:52.423Z,38.26
2022-08-17T10:37:53.257Z,38.92
2022-08-17T10:40:50.567Z,39.92
2022-08-17T10:44:36.679Z,41.65
2022-08-17T10:47:12.662Z,41.68
2022-08-17T10:50:38.425Z,41.36
2022-08-17T10:53:33.006Z,37.72
2022-08-17T10:56:21.697Z,36.30
2022-08-17T10:59:07.565Z,35.51
2022-08-17T11:02:04.029Z,35.14
2022-08-17T11:05:07.367Z,34.30
2022-08-17T11:08:12.851Z,35.99
2022-08-17T11:11:35.862Z,38.43
2022-08-17T11:14:27.198Z,36.81
2022-08-17T11:17:30.173Z,36.81
2022-08-17T11:20:39.316Z,36.25
2022-08-17T11:24:05.040Z,34.72
2022-08-17T11:27:21.870Z,35.94
2022-08-17T11:30:40.842Z,37.02
2022-08-17T11:33:29.293Z,34.95
2022-08-17T11:36:52.381Z,34.69
2022-08-17T11:39:56.663Z,32.96
2022-08-17T11:43:00.168Z,30.29
2022-08-17T11:46:51.822Z,28.12
2022-08-17T11:50:15.301Z,28.23
2022-08-17T11:53:01.128Z,27.53
2022-08-17T11:55:52.495Z,27.72
2022-08-17T11:58:42.987Z,27.66
2022-08-17T12:01:32.244Z,27.20
2022-08-17T12:04:28.391Z,28.19
2022-08-17T12:07:18.949Z,27.40
2022-08-17T12:10:05.838Z,27.65
2022-08-17T12:12:53.978Z,24.18
2022-08-17T12:15:48.569Z,24.87
2022-08-17T12:18:38.724Z,28.03
2022-08-17T12:21:49.669Z,25.14
2022-08-17T12:25:10.860Z,28.20
2022-08-17T12:28:06.003Z,27.15
2022-08-17T12:30:54.107Z,25.56
2022-08-17T12:33:44.472Z,25.83
2022-08-17T12:36:30.641Z,25.27
2022-08-17T12:39:25.074Z,25.98
2022-08-17T12:42:23.440Z,24.09
2022-08-17T12:45:24.782Z,26.64
2022-08-17T12:48:21.898Z,25.77
2022-08-17T12:51:08.836Z,24.93
2022-08-17T12:53:55.436Z,24.80
2022-08-17T12:56:45.872Z,23.74
2022-08-17T12:59:33.313Z,25.70
2022-08-17T13:02:29.888Z,25.57
2022-08-17T13:05:23.972Z,26.58
2022-08-17T13:08:33.484Z,26.24
2022-08-17T13:11:24.008Z,24.95
2022-08-17T13:14:10.545Z,25.42
2022-08-17T13:17:01.722Z,25.99
2022-08-17T13:19:50.576Z,22.82
2022-08-17T13:22:36.309Z,23.67
2022-08-17T13:25:21.795Z,23.32
2022-08-17T13:28:36.180Z,24.98
2022-08-17T13:31:40.244Z,24.13
2022-08-17T13:35:12.537Z,26.16
2022-08-17T13:38:01.499Z,30.42
2022-08-17T13:40:52.885Z,30.28
2022-08-17T13:43:45.808Z,27.52
2022-08-17T13:46:33.001Z,25.21
2022-08-17T13:49:20.897Z,23.84
2022-08-17T13:52:07.867Z,25.44
2022-08-17T13:54:55.689Z,24.64
2022-08-17T13:57:46.419Z,24.75
2022-08-17T14:00:33.660Z,25.38
2022-08-17T14:03:20.323Z,25.49
2022-08-17T14:06:06.045Z,24.99
2022-08-17T14:08:54.616Z,24.74
2022-08-17T14:11:40.589Z,27.07
2022-08-17T14:14:26.753Z,29.00
2022-08-17T14:17:12.672Z,28.68
2022-08-17T14:19:59.405Z,26.45
2022-08-17T14:22:49.409Z,25.22
2022-08-17T14:25:35.219Z,26.06
2022-08-17T14:28:20.681Z,26.30
2022-08-17T14:31:08.334Z,26.60
2022-08-17T14:33:53.837Z,27.62
2022-08-17T14:36:41.743Z,29.15
2022-08-17T14:39:33.848Z,27.17
2022-08-17T14:42:20.411Z,25.66
2022-08-17T14:45:27.402Z,25.37
2022-08-17T14:48:14.187Z,26.44
2022-08-17T14:50:59.689Z,25.41
2022-08-17T14:53:45.775Z,28.95
2022-08-17T14:56:31.769Z,31.62
2022-08-17T14:59:23.841Z,33.43
2022-08-17T15:02:10.681Z,36.92
2022-08-17T15:05:05.165Z,39.66
2022-08-17T15:07:50.594Z,38.12
2022-08-17T15:10:36.991Z,38.87
2022-08-17T15:13:25.315Z,39.71
2022-08-17T15:16:13.651Z,40.38
2022-08-17T15:19:00.219Z,39.43
2022-08-17T15:21:46.813Z,40.63
2022-08-17T15:24:32.312Z,39.95
2022-08-17T15:27:17.778Z,40.51
2022-08-17T15:30:17.329Z,40.52
2022-08-17T15:33:03.523Z,41.30
2022-08-17T15:35:51.684Z,40.57
2022-08-17T15:38:39.255Z,41.35
2022-08-17T15:41:27.967Z,41.21
2022-08-17T15:44:13.500Z,40.80
2022-08-17T15:46:58.976Z,41.14
2022-08-17T15:49:45.817Z,41.16
2022-08-17T15:52:31.123Z,42.17
2022-08-17T15:55:23.430Z,41.77
2022-08-17T15:58:09.784Z,41.53
2022-08-17T16:01:14.780Z,41.04
2022-08-17T16:04:07.319Z,42.35
2022-08-17T16:07:07.194Z,41.38
2022-08-17T16:09:52.576Z,41.43
2022-08-17T16:12:38.326Z,43.67
2022-08-17T16:15:23.968Z,43.21
2022-08-17T16:18:10.123Z,43.15
2022-08-17T16:20:55.468Z,44.34
2022-08-17T16:23:41.298Z,45.01
2022-08-17T16:26:28.387Z,45.22
2022-08-17T16:29:14.066Z,46.07
2022-08-17T16:32:08.587Z,46.17
2022-08-17T16:34:54.247Z,46.65
2022-08-17T16:37:40.351Z,46.65
2022-08-17T16:40:31.340Z,47.25
2022-08-17T16:43:21.618Z,46.18
2022-08-17T16:46:06.923Z,48.03
2022-08-17T16:48:52.653Z,48.03
2022-08-17T16:51:38.125Z,47.93
2022-08-17T16:54:23.427Z,49.62
2022-08-17T16:57:13.151Z,48.89
2022-08-17T16:59:58.729Z,48.85
2022-08-17T17:02:47.581Z,50.32
2022-08-17T17:05:51.436Z,50.83
2022-08-17T17:08:49.218Z,52.46
2022-08-17T17:11:47.005Z,51.89
2022-08-17T17:14:36.761Z,57.06
2022-08-17T17:17:25.243Z,58.67
2022-08-17T17:20:16.337Z,58.93
2022-08-17T17:23:22.011Z,61.27
2022-08-17T17:26:23.654Z,61.77
2022-08-17T17:29:26.649Z,58.43
2022-08-17T17:32:37.944Z,80.24
2022-08-17T17:35:31.854Z,92.56
2022-08-17T17:38:29.229Z,100.00
2022-08-17T17:41:26.496Z,100.00
2022-08-17T17:44:17.976Z,100.00
2022-08-17T17:47:05.988Z,100.00
2022-08-17T17:49:51.365Z,100.00
2022-08-17T17:53:04.225Z,100.00
2022-08-17T17:56:40.522Z,100.00
2022-08-17T17:59:48.495Z,100.00
2022-08-17T18:02:52.763Z,100.00
2022-08-17T18:06:03.024Z,100.00
2022-08-17T18:12:12.160Z,100.00
2022-08-17T18:15:21.599Z,100.00
2022-08-17T18:18:15.940Z,100.00
2022-08-17T18:21:07.184Z,100.00
2022-08-17T18:24:04.043Z,100.00
2022-08-17T18:26:56.773Z,100.00
2022-08-17T18:29:47.858Z,100.00
2022-08-17T18:32:38.198Z,100.00
2022-08-17T18:35:28.421Z,100.00
2022-08-17T18:38:27.273Z,100.00
2022-08-17T18:41:26.065Z,100.00
2022-08-17T18:44:42.390Z,100.00
2022-08-17T18:47:28.915Z,100.00
2022-08-17T18:50:26.262Z,100.00
2022-08-17T18:53:30.190Z,100.00
2022-08-17T18:56:34.035Z,100.00
2022-08-17T18:59:43.327Z,100.00
2022-08-17T19:02:44.170Z,100.00
2022-08-17T19:05:40.504Z,100.00
2022-08-17T19:08:28.525Z,100.00
2022-08-17T19:11:25.886Z,100.00
2022-08-17T19:14:16.555Z,100.00
2022-08-17T19:17:12.407Z,100.00
2022-08-17T19:20:10.257Z,100.00
2022-08-17T19:23:31.004Z,100.00
2022-08-17T19:26:51.396Z,100.00
2022-08-17T19:30:10.151Z,100.00
2022-08-17T19:32:58.221Z,100.00
2022-08-17T19:35:58.886Z,100.00
2022-08-17T19:39:32.057Z,100.00
2022-08-17T19:42:47.638Z,100.00
2022-08-17T19:46:05.904Z,100.00
2022-08-17T19:48:53.867Z,100.00
2022-08-17T19:51:58.023Z,100.00
2022-08-17T19:54:55.211Z,100.00
2022-08-17T19:58:07.597Z,100.00
2022-08-17T20:00:54.698Z,100.00
2022-08-17T20:04:07.382Z,100.00
2022-08-17T20:06:53.260Z,100.00
2022-08-17T20:09:44.224Z,100.00
2022-08-17T20:12:36.011Z,100.00
2022-08-17T20:15:35.445Z,100.00
2022-08-17T20:18:47.672Z,100.00
2022-08-17T20:21:48.447Z,100.00
2022-08-17T20:24:36.845Z,100.00
2022-08-17T20:27:31.589Z,100.00
2022-08-17T20:30:23.306Z,100.00
2022-08-17T20:33:23.810Z,100.00
2022-08-17T20:36:20.425Z,100.00
2022-08-17T20:39:05.821Z,100.00
2022-08-17T20:42:21.885Z,100.00
2022-08-17T20:45:23.330Z,100.00
2022-08-17T20:48:36.374Z,100.00
2022-08-17T20:51:32.384Z,100.00
2022-08-17T20:54:18.083Z,100.00
2022-08-17T20:57:09.185Z,100.00
2022-08-17T21:00:27.850Z,100.00
2022-08-17T21:03:26.858Z,100.00
2022-08-17T21:06:17.579Z,100.00
2022-08-17T21:09:12.518Z,100.00
2022-08-17T21:12:04.619Z,100.00
2022-08-17T21:15:03.412Z,100.00
2022-08-17T21:17:56.695Z,100.00
2022-08-17T21:21:05.915Z,100.00
2022-08-17T21:24:21.649Z,100.00
2022-08-17T21:27:20.033Z,100.00
2022-08-17T21:30:06.477Z,100.00
2022-08-17T21:33:25.048Z,100.00
2022-08-17T21:36:11.355Z,100.00
2022-08-17T21:39:04.881Z,100.00
2022-08-17T21:41:55.687Z,100.00
2022-08-17T21:44:52.184Z,100.00
2022-08-17T21:47:43.343Z,100.00
2022-08-17T21:50:30.047Z,100.00
2022-08-17T21:53:30.678Z,100.00
2022-08-17T21:56:34.279Z,100.00
2022-08-17T21:59:27.116Z,100.00
2022-08-17T22:02:21.130Z,100.00
2022-08-17T22:05:12.791Z,100.00
2022-08-17T22:08:06.402Z,100.00
2022-08-17T22:11:01.932Z,100.00
2022-08-17T22:13:47.397Z,100.00
2022-08-17T22:16:34.771Z,100.00
2022-08-17T22:19:28.875Z,100.00
2022-08-17T22:22:29.180Z,100.00
2022-08-17T22:25:21.474Z,100.00
2022-08-17T22:28:10.377Z,100.00
2022-08-17T22:31:02.295Z,100.00
2022-08-17T22:34:10.834Z,100.00
2022-08-17T22:37:27.615Z,100.00
2022-08-17T22:40:26.329Z,100.00
2022-08-17T22:43:12.900Z,100.00
2022-08-17T22:45:59.703Z,100.00
2022-08-17T22:48:52.218Z,100.00
2022-08-17T22:51:37.869Z,100.00
2022-08-17T22:54:41.504Z,100.00
2022-08-17T22:57:47.061Z,100.00
2022-08-17T23:00:38.059Z,100.00
2022-08-17T23:03:26.021Z,100.00
2022-08-17T23:06:11.525Z,100.00
2022-08-17T23:08:57.641Z,100.00
2022-08-17T23:11:49.937Z,100.00
2022-08-17T23:14:41.832Z,100.00
2022-08-17T23:17:33.899Z,100.00
2022-08-17T23:20:22.248Z,100.00
2022-08-17T23:23:08.960Z,100.00
2022-08-17T23:25:54.661Z,100.00
2022-08-17T23:28:41.010Z,100.00
2022-08-17T23:31:26.488Z,100.00
2022-08-17T23:34:15.383Z,100.00
2022-08-17T23:37:02.273Z,100.00
2022-08-17T23:39:47.767Z,100.00
2022-08-17T23:42:34.732Z,100.00
2022-08-17T23:45:20.318Z,100.00
2022-08-17T23:48:07.833Z,100.00
2022-08-17T23:50:55.345Z,100.00
2022-08-17T23:53:48.035Z,100.00
2022-08-17T23:56:37.088Z,100.00
2022-08-17T23:59:23.483Z,100.00
